Terminal Aerodrome Forecast
Issued by NWS Twin Cities, MN

Home | Current Version | Previous Version | Text Only | Print | Product List | Glossary On
Versions: 1 2 3 4 5 6 7 8 9 10 11 12 13 14 15 16 17 18 19 20 21
000
FTUS43 KMPX 200500
TAFEAU
TAF
KEAU 200529Z 2006/2106 02003KT P6SM BKN080
     FM200700 00000KT 4SM BR SCT003 SCT080
      TEMPO 2007/2009 2SM BR SCT002 BKN080
     FM200900 00000KT 1SM BR SCT002
      TEMPO 2009/2013 1/4SM FG BKN001
     FM201400 10005KT P6SM SCT250=

USA.gov is the U.S. government's official web portal to all federal, state and local government web resources and services.